createdAt,value
2022-08-09T00:01:49.413Z,26.20
2022-08-09T00:04:34.572Z,26.28
2022-08-09T00:07:07.790Z,26.36
2022-08-09T00:09:39.457Z,26.39
2022-08-09T00:12:08.423Z,26.36
2022-08-09T00:14:38.557Z,26.33
2022-08-09T00:17:08.383Z,26.30
2022-08-09T00:19:56.542Z,26.30
2022-08-09T00:22:35.061Z,26.27
2022-08-09T00:25:10.072Z,26.29
2022-08-09T00:27:43.012Z,26.25
2022-08-09T00:30:24.350Z,26.27
2022-08-09T00:32:54.476Z,26.25
2022-08-09T00:35:24.036Z,26.26
2022-08-09T00:37:52.250Z,26.25
2022-08-09T00:40:31.032Z,26.16
2022-08-09T00:44:25.463Z,26.07
2022-08-09T00:45:54.108Z,26.08
2022-08-09T00:48:22.471Z,26.00
2022-08-09T00:50:52.164Z,26.01
2022-08-09T00:53:24.268Z,25.94
2022-08-09T00:56:05.451Z,25.95
2022-08-09T00:58:37.916Z,25.84
2022-08-09T01:01:32.517Z,25.73
2022-08-09T01:05:02.726Z,25.80
2022-08-09T01:08:01.143Z,25.78
2022-08-09T01:10:52.318Z,25.72
2022-08-09T01:14:00.255Z,25.70
2022-08-09T01:16:39.513Z,25.68
2022-08-09T01:19:16.935Z,25.83
2022-08-09T01:22:27.405Z,25.76
2022-08-09T01:25:41.574Z,25.71
2022-08-09T01:28:11.478Z,25.67
2022-08-09T01:30:52.673Z,25.61
2022-08-09T01:33:25.482Z,25.59
2022-08-09T01:36:01.555Z,25.72
2022-08-09T01:38:35.087Z,25.64
2022-08-09T01:41:26.055Z,25.83
2022-08-09T01:44:00.663Z,25.67
2022-08-09T01:46:36.226Z,25.55
2022-08-09T01:49:12.672Z,25.55
2022-08-09T01:51:55.509Z,25.73
2022-08-09T01:54:32.561Z,25.85
2022-08-09T01:57:11.886Z,25.91
2022-08-09T01:59:51.819Z,25.85
2022-08-09T02:02:30.881Z,25.86
2022-08-09T02:05:15.396Z,25.90
2022-08-09T02:08:40.657Z,26.11
2022-08-09T02:10:50.731Z,26.08
2022-08-09T02:13:25.883Z,26.02
2022-08-09T02:16:07.501Z,25.97
2022-08-09T02:18:38.182Z,25.92
2022-08-09T02:21:17.093Z,25.94
2022-08-09T02:23:54.597Z,25.92
2022-08-09T02:26:27.421Z,25.98
2022-08-09T02:29:05.065Z,25.96
2022-08-09T02:31:39.266Z,25.93
2022-08-09T02:34:40.993Z,25.87
2022-08-09T02:37:24.849Z,25.84
2022-08-09T02:40:05.268Z,25.90
2022-08-09T02:42:42.140Z,25.88
2022-08-09T02:45:37.866Z,25.90
2022-08-09T02:48:30.554Z,25.85
2022-08-09T02:51:01.684Z,25.77
2022-08-09T02:53:52.805Z,25.73
2022-08-09T02:56:22.989Z,25.62
2022-08-09T02:58:52.811Z,25.56
2022-08-09T03:01:29.507Z,25.49
2022-08-09T03:04:19.245Z,25.40
2022-08-09T03:06:49.312Z,25.36
2022-08-09T03:09:20.533Z,25.26
2022-08-09T03:12:06.716Z,25.28
2022-08-09T03:14:40.768Z,25.24
2022-08-09T03:17:20.330Z,25.22
2022-08-09T03:20:03.158Z,25.13
2022-08-09T03:22:41.297Z,25.10
2022-08-09T03:25:26.159Z,25.09
2022-08-09T03:28:04.270Z,25.09
2022-08-09T03:30:39.557Z,25.05
2022-08-09T03:33:17.548Z,25.05
2022-08-09T03:36:16.025Z,25.04
2022-08-09T03:38:43.559Z,25.00
2022-08-09T03:41:16.059Z,24.95
2022-08-09T03:44:02.943Z,24.87
2022-08-09T03:46:35.544Z,24.83
2022-08-09T03:49:08.464Z,24.81
2022-08-09T03:51:58.570Z,24.80
2022-08-09T03:54:32.381Z,24.95
2022-08-09T03:57:04.519Z,25.03
2022-08-09T03:59:53.278Z,24.99
2022-08-09T04:02:28.319Z,25.10
2022-08-09T04:04:58.626Z,25.08
2022-08-09T04:07:47.709Z,25.09
2022-08-09T04:10:28.851Z,25.07
2022-08-09T04:13:11.417Z,25.07
2022-08-09T04:16:18.814Z,25.02
2022-08-09T04:18:28.302Z,24.96
2022-08-09T04:20:56.465Z,25.00
2022-08-09T04:23:25.875Z,24.95
2022-08-09T04:25:55.515Z,24.88
2022-08-09T04:28:31.381Z,24.84
2022-08-09T04:31:08.132Z,24.89
2022-08-09T04:33:47.557Z,24.88
2022-08-09T04:36:24.275Z,24.84
2022-08-09T04:38:54.012Z,24.81
2022-08-09T04:41:24.450Z,24.84
2022-08-09T04:44:11.013Z,24.76
2022-08-09T04:46:59.648Z,24.75
2022-08-09T04:49:53.577Z,24.70
2022-08-09T04:52:28.265Z,24.73
2022-08-09T04:54:59.420Z,24.73
2022-08-09T04:57:58.352Z,24.69
2022-08-09T05:00:17.271Z,24.82
2022-08-09T05:02:52.690Z,24.84
2022-08-09T05:05:32.151Z,24.86
2022-08-09T05:08:13.971Z,24.83
2022-08-09T05:10:43.274Z,24.87
2022-08-09T05:13:13.168Z,24.85
2022-08-09T05:15:48.058Z,24.90
2022-08-09T05:18:38.909Z,24.94
2022-08-09T05:21:10.110Z,24.96
2022-08-09T05:24:01.481Z,25.02
2022-08-09T05:26:37.316Z,25.12
2022-08-09T05:29:24.254Z,25.20
2022-08-09T05:31:56.101Z,25.21
2022-08-09T05:34:30.237Z,25.24
2022-08-09T05:37:06.829Z,25.13
2022-08-09T05:39:43.911Z,25.21
2022-08-09T05:42:17.677Z,25.33
2022-08-09T05:44:54.803Z,25.54
2022-08-09T05:47:24.759Z,25.70
2022-08-09T05:50:29.933Z,25.74
2022-08-09T05:52:44.292Z,25.73
2022-08-09T05:55:20.649Z,25.75
2022-08-09T05:57:56.750Z,25.58
2022-08-09T06:00:32.738Z,25.55
2022-08-09T06:03:03.920Z,25.55
2022-08-09T06:05:50.347Z,25.63
2022-08-09T06:08:26.178Z,25.90
2022-08-09T06:10:55.582Z,26.09
2022-08-09T06:13:25.252Z,26.35
2022-08-09T06:15:55.306Z,26.55
2022-08-09T06:18:25.237Z,26.62
2022-08-09T06:20:58.586Z,26.76
2022-08-09T06:23:57.135Z,26.98
2022-08-09T06:26:20.225Z,27.21
2022-08-09T06:29:00.035Z,27.20
2022-08-09T06:31:40.328Z,27.36
2022-08-09T06:34:20.256Z,27.43
2022-08-09T06:36:58.983Z,27.57
2022-08-09T06:39:48.499Z,27.87
2022-08-09T06:42:24.527Z,27.89
2022-08-09T06:45:00.182Z,27.88
2022-08-09T06:47:39.864Z,27.92
2022-08-09T06:50:13.421Z,28.41
2022-08-09T06:52:49.114Z,29.08
2022-08-09T06:55:23.399Z,29.63
2022-08-09T06:58:02.643Z,30.81
2022-08-09T07:00:50.318Z,30.82
2022-08-09T07:03:28.259Z,31.91
2022-08-09T07:06:03.642Z,31.56
2022-08-09T07:08:34.786Z,31.23
2022-08-09T07:11:06.520Z,30.72
2022-08-09T07:14:03.474Z,30.36
2022-08-09T07:16:40.410Z,30.04
2022-08-09T07:19:15.742Z,30.42
2022-08-09T07:21:50.188Z,31.41
2022-08-09T07:24:31.808Z,31.33
2022-08-09T07:27:10.802Z,31.68
2022-08-09T07:29:58.693Z,31.78
2022-08-09T07:32:32.590Z,32.03
2022-08-09T07:35:10.090Z,32.56
2022-08-09T07:37:42.997Z,31.69
2022-08-09T07:40:17.711Z,31.43
2022-08-09T07:42:55.442Z,31.94
2022-08-09T07:45:37.366Z,31.38
2022-08-09T07:48:07.990Z,31.39
2022-08-09T07:51:09.395Z,31.47
2022-08-09T07:54:05.928Z,31.47
2022-08-09T07:56:30.901Z,31.78
2022-08-09T07:58:59.916Z,32.06
2022-08-09T08:01:33.211Z,31.97
2022-08-09T08:04:03.699Z,31.77
2022-08-09T08:06:32.766Z,31.32
2022-08-09T08:09:07.669Z,31.68
2022-08-09T08:12:11.531Z,31.84
2022-08-09T08:14:34.758Z,32.00
2022-08-09T08:17:07.617Z,31.56
2022-08-09T08:19:38.218Z,32.18
2022-08-09T08:22:06.423Z,32.52
2022-08-09T08:24:40.783Z,32.98
2022-08-09T08:27:17.244Z,32.88
2022-08-09T08:29:48.449Z,32.82
2022-08-09T08:32:24.321Z,33.53
2022-08-09T08:34:59.273Z,34.09
2022-08-09T08:37:41.944Z,33.90
2022-08-09T08:40:16.947Z,32.68
2022-08-09T08:42:47.613Z,33.01
2022-08-09T08:45:37.034Z,32.63
2022-08-09T08:48:06.736Z,31.95
2022-08-09T08:50:39.072Z,32.43
2022-08-09T08:53:12.015Z,32.82
2022-08-09T08:55:44.493Z,32.67
2022-08-09T08:58:13.654Z,32.76
2022-08-09T09:00:42.911Z,32.44
2022-08-09T09:03:22.859Z,32.47
2022-08-09T09:06:04.789Z,32.52
2022-08-09T09:08:44.923Z,32.75
2022-08-09T09:11:21.783Z,32.73
2022-08-09T09:13:56.768Z,32.49
2022-08-09T09:16:34.918Z,32.41
2022-08-09T09:22:07.987Z,32.42
2022-08-09T09:24:50.953Z,32.60
2022-08-09T09:28:05.477Z,32.29
2022-08-09T09:30:38.688Z,31.99
2022-08-09T09:33:16.631Z,32.30
2022-08-09T09:36:02.653Z,32.49
2022-08-09T09:38:57.217Z,32.57
2022-08-09T09:41:33.324Z,32.64
2022-08-09T09:44:40.677Z,32.72
2022-08-09T09:47:12.224Z,32.83
2022-08-09T09:50:06.918Z,32.79
2022-08-09T09:52:54.580Z,33.09
2022-08-09T09:55:31.428Z,32.93
2022-08-09T09:58:15.939Z,32.93
2022-08-09T10:00:55.504Z,33.07
2022-08-09T10:03:42.724Z,33.08
2022-08-09T10:06:12.738Z,32.98
2022-08-09T10:08:55.075Z,32.64
2022-08-09T10:11:59.525Z,32.73
2022-08-09T10:14:30.450Z,33.14
2022-08-09T10:17:40.648Z,33.15
2022-08-09T10:20:02.041Z,32.88
2022-08-09T10:22:39.378Z,33.14
2022-08-09T10:25:11.718Z,33.33
2022-08-09T10:27:56.824Z,33.13
2022-08-09T10:32:13.695Z,33.23
2022-08-09T10:33:29.758Z,33.45
2022-08-09T10:36:09.508Z,33.67
2022-08-09T10:38:56.403Z,33.82
2022-08-09T10:41:25.937Z,33.20
2022-08-09T10:44:01.177Z,33.24
2022-08-09T10:46:52.316Z,33.29
2022-08-09T10:49:51.281Z,33.49
2022-08-09T10:52:33.694Z,33.43
2022-08-09T10:55:25.547Z,31.78
2022-08-09T10:57:59.888Z,32.65
2022-08-09T11:00:35.719Z,33.27
2022-08-09T11:03:51.411Z,32.66
2022-08-09T11:06:18.525Z,33.09
2022-08-09T11:08:51.802Z,33.45
2022-08-09T11:11:23.435Z,33.74
2022-08-09T11:14:29.023Z,33.67
2022-08-09T11:17:19.265Z,34.28
2022-08-09T11:20:22.044Z,33.68
2022-08-09T11:22:55.376Z,33.64
2022-08-09T11:25:44.817Z,34.15
2022-08-09T11:28:34.622Z,34.27
2022-08-09T11:31:33.772Z,34.57
2022-08-09T11:34:07.265Z,34.50
2022-08-09T11:36:44.235Z,34.64
2022-08-09T11:39:14.685Z,34.74
2022-08-09T11:41:45.909Z,34.80
2022-08-09T11:44:17.467Z,34.65
2022-08-09T11:46:53.645Z,35.26
2022-08-09T11:50:52.601Z,35.22
2022-08-09T11:53:15.548Z,35.46
2022-08-09T11:55:53.968Z,34.92
2022-08-09T11:58:33.147Z,35.03
2022-08-09T12:01:15.570Z,35.23
2022-08-09T12:04:08.593Z,35.55
2022-08-09T12:06:56.230Z,35.33
2022-08-09T12:09:33.647Z,34.26
2022-08-09T12:12:12.921Z,33.39
2022-08-09T12:15:07.697Z,34.45
2022-08-09T12:17:43.260Z,34.45
2022-08-09T12:20:21.801Z,35.23
2022-08-09T12:22:56.315Z,35.25
2022-08-09T12:25:36.841Z,35.37
2022-08-09T12:28:58.117Z,35.44
2022-08-09T12:31:02.900Z,35.65
2022-08-09T12:33:58.482Z,35.48
2022-08-09T12:36:31.692Z,35.35
2022-08-09T12:39:01.725Z,34.63
2022-08-09T12:41:39.050Z,33.66
2022-08-09T12:44:10.204Z,34.72
2022-08-09T12:46:48.899Z,35.30
2022-08-09T12:49:20.970Z,35.42
2022-08-09T12:52:02.850Z,35.46
2022-08-09T12:56:10.917Z,35.07
2022-08-09T12:57:47.044Z,35.57
2022-08-09T13:00:25.583Z,35.50
2022-08-09T13:02:59.676Z,35.70
2022-08-09T13:05:51.565Z,35.15
2022-08-09T13:08:39.627Z,36.10
2022-08-09T13:11:23.384Z,36.29
2022-08-09T13:14:37.162Z,36.24
2022-08-09T13:16:50.371Z,35.10
2022-08-09T13:20:09.414Z,35.10
2022-08-09T13:22:37.764Z,35.94
2022-08-09T13:25:15.550Z,36.40
2022-08-09T13:27:48.574Z,36.67
2022-08-09T13:31:10.942Z,36.31
2022-08-09T13:33:23.765Z,36.68
2022-08-09T13:36:39.758Z,37.27
2022-08-09T13:38:57.738Z,36.75
2022-08-09T13:41:58.793Z,36.97
2022-08-09T13:44:17.055Z,37.20
2022-08-09T13:47:26.851Z,36.60
2022-08-09T13:49:55.867Z,36.86
2022-08-09T13:52:25.873Z,36.80
2022-08-09T13:54:59.314Z,37.06
2022-08-09T13:57:40.478Z,37.45
2022-08-09T14:00:12.338Z,37.20
2022-08-09T14:03:04.297Z,37.52
2022-08-09T14:05:56.513Z,37.08
2022-08-09T14:08:30.583Z,36.59
2022-08-09T14:11:00.618Z,36.42
2022-08-09T14:14:22.003Z,36.55
2022-08-09T14:16:28.644Z,36.25
2022-08-09T14:18:58.383Z,35.91
2022-08-09T14:21:29.618Z,35.23
2022-08-09T14:24:05.516Z,35.23
2022-08-09T14:26:38.883Z,35.45
2022-08-09T14:30:18.745Z,35.30
2022-08-09T14:31:58.947Z,34.62
2022-08-09T14:34:34.288Z,34.33
2022-08-09T14:37:07.918Z,34.10
2022-08-09T14:39:39.922Z,33.83
2022-08-09T14:42:09.311Z,33.30
2022-08-09T14:44:59.595Z,33.39
2022-08-09T14:47:39.970Z,33.37
2022-08-09T14:50:15.962Z,33.23
2022-08-09T14:52:47.826Z,33.28
2022-08-09T14:55:20.404Z,33.09
2022-08-09T14:57:49.749Z,32.85
2022-08-09T15:00:18.561Z,32.69
2022-08-09T15:02:47.614Z,32.50
2022-08-09T15:05:20.551Z,32.64
2022-08-09T15:07:56.377Z,32.78
2022-08-09T15:10:26.507Z,32.64
2022-08-09T15:12:55.785Z,32.58
2022-08-09T15:15:28.326Z,32.08
2022-08-09T15:17:58.442Z,31.91
2022-08-09T15:21:57.379Z,31.94
2022-08-09T15:24:01.743Z,31.88
2022-08-09T15:26:09.046Z,31.90
2022-08-09T15:28:54.677Z,31.91
2022-08-09T15:31:28.640Z,31.88
2022-08-09T15:34:32.371Z,31.77
2022-08-09T15:37:01.189Z,31.75
2022-08-09T15:39:49.909Z,31.67
2022-08-09T15:42:21.989Z,31.68
2022-08-09T15:44:50.869Z,31.60
2022-08-09T15:47:21.763Z,31.68
2022-08-09T15:50:03.616Z,31.60
2022-08-09T15:52:35.211Z,31.57
2022-08-09T15:55:09.291Z,31.39
2022-08-09T15:57:44.213Z,31.36
2022-08-09T16:00:25.136Z,31.39
2022-08-09T16:02:56.096Z,31.37
2022-08-09T16:05:47.619Z,31.27
2022-08-09T16:08:30.095Z,31.18
2022-08-09T16:11:01.563Z,31.07
2022-08-09T16:14:03.348Z,30.98
2022-08-09T16:16:20.190Z,31.03
2022-08-09T16:18:54.532Z,31.11
2022-08-09T16:21:25.692Z,31.16
2022-08-09T16:23:58.257Z,31.11
2022-08-09T16:26:33.749Z,31.11
2022-08-09T16:29:11.833Z,31.19
2022-08-09T16:32:18.669Z,31.17
2022-08-09T16:34:54.666Z,31.21
2022-08-09T16:37:53.533Z,31.24
2022-08-09T16:40:13.283Z,31.18
2022-08-09T16:42:45.276Z,31.22
2022-08-09T16:45:19.633Z,31.15
2022-08-09T16:48:41.276Z,30.97
2022-08-09T16:50:38.471Z,30.88
2022-08-09T16:53:09.052Z,30.88
2022-08-09T16:56:00.102Z,30.82
2022-08-09T16:58:28.110Z,30.75
2022-08-09T17:00:58.219Z,30.70
2022-08-09T17:03:26.412Z,30.63
2022-08-09T17:06:03.450Z,30.60
2022-08-09T17:08:43.946Z,30.55
2022-08-09T17:11:40.449Z,30.53
2022-08-09T17:14:25.995Z,30.42
2022-08-09T17:17:01.155Z,30.39
2022-08-09T17:20:05.109Z,30.36
2022-08-09T17:22:28.814Z,30.26
2022-08-09T17:25:03.753Z,30.25
2022-08-09T17:27:34.426Z,30.15
2022-08-09T17:30:12.828Z,30.14
2022-08-09T17:32:45.551Z,30.13
2022-08-09T17:35:15.173Z,30.01
2022-08-09T17:38:11.541Z,29.92
2022-08-09T17:40:34.968Z,29.89
2022-08-09T17:43:32.362Z,29.85
2022-08-09T17:46:02.740Z,29.79
2022-08-09T17:48:34.657Z,29.68
2022-08-09T17:51:09.619Z,29.65
2022-08-09T17:53:43.048Z,29.59
2022-08-09T17:56:18.439Z,29.54
2022-08-09T17:58:46.912Z,29.42
2022-08-09T18:01:22.236Z,29.40
2022-08-09T18:03:54.595Z,29.35
2022-08-09T18:06:32.080Z,29.31
2022-08-09T18:09:08.433Z,29.24
2022-08-09T18:11:46.914Z,29.13
2022-08-09T18:14:27.590Z,29.05
2022-08-09T18:16:55.841Z,29.06
2022-08-09T18:20:58.202Z,29.03
2022-08-09T18:22:17.037Z,28.90
2022-08-09T18:24:46.888Z,28.82
2022-08-09T18:27:49.387Z,28.72
2022-08-09T18:30:41.837Z,28.61
2022-08-09T18:32:54.689Z,28.46
2022-08-09T18:35:58.858Z,28.31
2022-08-09T18:38:12.631Z,28.24
2022-08-09T18:40:43.148Z,28.15
2022-08-09T18:43:13.257Z,28.04
2022-08-09T18:46:50.003Z,27.96
2022-08-09T18:48:32.938Z,27.92
2022-08-09T18:51:01.889Z,27.83
2022-08-09T18:53:53.046Z,27.71
2022-08-09T18:56:27.177Z,27.55
2022-08-09T18:58:57.611Z,27.41
2022-08-09T19:01:43.236Z,27.31
2022-08-09T19:04:14.586Z,27.18
2022-08-09T19:06:50.594Z,27.02
2022-08-09T19:09:20.575Z,26.87
2022-08-09T19:12:09.234Z,26.66
2022-08-09T19:14:38.645Z,26.56
2022-08-09T19:17:06.871Z,26.43
2022-08-09T19:19:41.556Z,26.32
2022-08-09T19:22:12.004Z,26.23
2022-08-09T19:25:11.897Z,26.11
2022-08-09T19:27:32.745Z,26.04
2022-08-09T19:30:24.927Z,25.90
2022-08-09T19:32:53.518Z,25.81
2022-08-09T19:35:26.406Z,25.76
2022-08-09T19:37:58.120Z,25.68
2022-08-09T19:40:34.286Z,25.61
2022-08-09T19:43:16.344Z,25.54
2022-08-09T19:45:57.787Z,25.54
2022-08-09T19:49:00.458Z,25.55
2022-08-09T19:51:14.351Z,25.52
2022-08-09T19:53:47.860Z,25.54
2022-08-09T19:56:16.440Z,25.49
2022-08-09T19:59:39.258Z,25.47
2022-08-09T20:01:52.324Z,25.43
2022-08-09T20:04:40.386Z,25.30
2022-08-09T20:07:20.915Z,25.21
2022-08-09T20:09:49.931Z,25.08
2022-08-09T20:12:29.813Z,24.99
2022-08-09T20:15:00.047Z,24.91
2022-08-09T20:17:41.348Z,24.84
2022-08-09T20:20:16.419Z,24.77
2022-08-09T20:22:46.475Z,24.73
2022-08-09T20:25:22.491Z,24.64
2022-08-09T20:27:51.186Z,24.60
2022-08-09T20:30:23.668Z,24.57
2022-08-09T20:32:52.889Z,24.56
2022-08-09T20:35:24.413Z,24.54
2022-08-09T20:38:23.423Z,24.52
2022-08-09T20:40:41.134Z,24.49
2022-08-09T20:43:19.123Z,24.46
2022-08-09T20:46:01.158Z,24.43
2022-08-09T20:48:42.596Z,24.38
2022-08-09T20:51:19.208Z,24.35
2022-08-09T20:53:48.872Z,24.31
2022-08-09T20:56:21.851Z,24.33
2022-08-09T20:58:58.957Z,24.27
2022-08-09T21:01:34.817Z,24.28
2022-08-09T21:05:55.006Z,24.25
2022-08-09T21:07:11.834Z,24.27
2022-08-09T21:09:56.951Z,24.27
2022-08-09T21:15:23.420Z,24.28
2022-08-09T21:18:23.028Z,24.27
2022-08-09T21:20:43.967Z,24.28
2022-08-09T21:23:22.431Z,24.27
2022-08-09T21:26:10.688Z,24.31
2022-08-09T21:28:39.690Z,24.32
2022-08-09T21:31:24.023Z,24.34
2022-08-09T21:34:12.491Z,24.39
2022-08-09T21:36:55.205Z,24.39
2022-08-09T21:39:27.974Z,24.35
2022-08-09T21:42:06.101Z,24.37
2022-08-09T21:44:40.123Z,24.41
2022-08-09T21:47:17.504Z,24.41
2022-08-09T21:49:48.127Z,24.49
2022-08-09T21:52:20.329Z,24.57
2022-08-09T21:55:02.893Z,24.62
2022-08-09T21:57:38.278Z,24.64
2022-08-09T22:00:25.224Z,24.59
2022-08-09T22:02:59.634Z,24.55
2022-08-09T22:05:37.106Z,24.55
2022-08-09T22:08:12.930Z,24.54
2022-08-09T22:11:01.092Z,24.57
2022-08-09T22:13:35.541Z,24.61
2022-08-09T22:16:08.506Z,24.66
2022-08-09T22:18:38.645Z,24.69
2022-08-09T22:21:45.086Z,24.73
2022-08-09T22:24:21.144Z,24.75
2022-08-09T22:26:54.356Z,24.74
2022-08-09T22:29:28.761Z,24.77
2022-08-09T22:32:02.728Z,24.77
2022-08-09T22:34:30.929Z,24.73
2022-08-09T22:37:01.874Z,24.68
2022-08-09T22:39:56.275Z,24.63
2022-08-09T22:42:23.502Z,24.63
2022-08-09T22:45:02.452Z,24.66
2022-08-09T22:48:11.601Z,24.64
2022-08-09T22:50:32.627Z,24.62
2022-08-09T22:53:03.966Z,24.62
2022-08-09T22:56:06.689Z,24.54
2022-08-09T22:58:32.371Z,24.43
2022-08-09T23:01:08.527Z,24.24
2022-08-09T23:04:03.956Z,24.20
2022-08-09T23:06:34.891Z,23.78
2022-08-09T23:09:07.424Z,23.76
2022-08-09T23:11:36.012Z,23.76
2022-08-09T23:14:10.266Z,23.82
2022-08-09T23:16:45.672Z,23.85
2022-08-09T23:19:14.197Z,23.87
2022-08-09T23:21:42.675Z,24.05
2022-08-09T23:24:11.189Z,24.23
2022-08-09T23:26:40.439Z,24.43
2022-08-09T23:29:13.738Z,24.61
2022-08-09T23:31:42.435Z,24.86
2022-08-09T23:34:10.880Z,24.95
2022-08-09T23:36:39.154Z,25.04
2022-08-09T23:39:08.214Z,25.38
2022-08-09T23:41:36.490Z,25.53
2022-08-09T23:44:05.572Z,25.62
2022-08-09T23:46:34.089Z,25.93
2022-08-09T23:49:03.110Z,25.92
2022-08-09T23:51:31.395Z,26.01
2022-08-09T23:54:03.415Z,26.00
2022-08-09T23:56:52.142Z,25.98
2022-08-09T23:59:22.621Z,25.97
